Hartford, West Virginia
Current Conditions -  °F | °C
As of 9:55 PM on Saturday 25 Oct 2014 (Local Time) from K3I2 Reporting Station
Clear Clear  
Wind Chill: 63°   Ceiling: Unl
Heat Index: 63°   Visibility: 10mi
Dew Point: 55°   Wind: 9mph
Humidity: 77%   Direction: 240°WSW
Pressure: 29.89"   Gusts: 16mph
Location:  39°N, 81.98°W
Report Text: K3I2 260155Z AUTO 24008G14KT 10SM CLR 17/13 A2989 RMK AO2
Loading
Personal Weather Stations






























Interactive Weather Map
Tropical Storm Tracking
New forecast layout! Learn more

10-Day Weather Forecast

Advertisements
Track Severe Weather on mobile